Time;durP1;ratioP1;P1;durP2;ratioP2;P2;SDS_P1;SDS_P2;PMS_P1;PMS_P2;Temp;Humidity;BMP_temperature;BMP_pressure;BME280_temperature;BME280_humidity;BME280_pressure;Samples;Min_cycle;Max_cycle;Signal;HPM_P1;HPM_P2
2022/07/17 00:01:40;;;;;;;1999.90;999.90;;;12.60;99.90;;;;;;5063502;23;20486;-75
2022/07/17 00:04:07;;;;;;;1999.90;999.90;;;12.50;99.90;;;;;;5031830;28;20483;-75
2022/07/17 00:06:35;;;;;;;1999.90;999.90;;;12.50;99.90;;;;;;5030568;28;20462;-78
2022/07/17 00:09:02;;;;;;;1999.90;999.90;;;12.40;99.90;;;;;;5032530;28;20459;-75
2022/07/17 00:11:28;;;;;;;1999.90;999.90;;;12.40;99.90;;;;;;5031902;28;20478;-77
2022/07/17 00:13:55;;;;;;;1999.90;999.90;;;12.10;99.90;;;;;;5032055;28;20455;-75
2022/07/17 00:16:22;;;;;;;1999.90;999.90;;;12.00;99.90;;;;;;5031084;28;20962;-74
2022/07/17 00:18:49;;;;;;;1999.90;999.90;;;12.00;99.90;;;;;;5032228;28;20470;-78
2022/07/17 00:21:16;;;;;;;1999.90;999.90;;;11.90;99.90;;;;;;5029336;28;20517;-78
2022/07/17 00:23:44;;;;;;;1999.90;999.90;;;11.90;99.90;;;;;;5029859;28;20490;-80
2022/07/17 00:26:11;;;;;;;1999.90;999.90;;;11.90;99.90;;;;;;5027249;28;20521;-73
2022/07/17 00:28:38;;;;;;;1999.90;999.90;;;11.90;99.90;;;;;;5030785;28;20544;-77
2022/07/17 00:31:05;;;;;;;1999.90;999.90;;;11.80;99.90;;;;;;5031793;28;20463;-74
2022/07/17 00:33:32;;;;;;;1999.90;999.90;;;11.70;99.90;;;;;;5031787;28;20511;-74
2022/07/17 00:35:58;;;;;;;1999.90;999.90;;;11.30;99.90;;;;;;5032427;28;20513;-75
2022/07/17 00:38:25;;;;;;;1999.90;999.90;;;11.20;99.90;;;;;;5032977;28;20497;-74
2022/07/17 00:40:56;;;;;;;1999.90;999.90;;;11.20;99.90;;;;;;5033071;28;20471;-74
2022/07/17 00:43:23;;;;;;;1999.90;999.90;;;11.30;99.90;;;;;;5032641;28;20521;-79
2022/07/17 00:45:56;;;;;;;1999.90;999.90;;;11.30;99.90;;;;;;5033088;28;20959;-74
2022/07/17 00:48:23;;;;;;;1999.90;999.90;;;11.20;99.90;;;;;;5031085;28;20465;-78
2022/07/17 00:50:50;;;;;;;1999.90;999.90;;;11.20;99.90;;;;;;5032353;28;20525;-75
2022/07/17 00:53:16;;;;;;;1999.90;999.90;;;11.20;99.90;;;;;;5031646;28;20541;-73
2022/07/17 00:55:46;;;;;;;1999.90;999.90;;;11.20;99.90;;;;;;5032653;28;20521;-74
2022/07/17 00:58:19;;;;;;;1999.90;999.90;;;11.10;99.90;;;;;;5032170;28;20466;-77
2022/07/17 01:00:46;;;;;;;1999.90;999.90;;;11.10;99.90;;;;;;5033268;28;20463;-78
2022/07/17 01:03:13;;;;;;;1999.90;999.90;;;10.80;99.90;;;;;;5031911;28;20496;-71
2022/07/17 01:05:39;;;;;;;1999.90;999.90;;;10.70;99.90;;;;;;5033071;28;20511;-69
2022/07/17 01:08:06;;;;;;;1999.90;999.90;;;10.60;99.90;;;;;;5033336;28;20489;-75
2022/07/17 01:10:33;;;;;;;1999.90;999.90;;;10.70;99.90;;;;;;5035620;28;20582;-72
2022/07/17 01:13:00;;;;;;;1999.90;999.90;;;10.60;99.90;;;;;;5035786;28;20524;-72
2022/07/17 01:15:29;;;;;;;1999.90;999.90;;;10.30;99.90;;;;;;5035807;28;20447;-81
2022/07/17 01:17:56;;;;;;;1999.90;999.90;;;10.30;99.90;;;;;;5035558;28;20470;-74
2022/07/17 01:20:22;;;;;;;1999.90;999.90;;;10.30;99.90;;;;;;5035476;28;20928;-73
2022/07/17 01:22:52;;;;;;;1999.90;999.90;;;10.50;99.90;;;;;;5035401;28;20463;-70
2022/07/17 01:25:22;;;;;;;1999.90;999.90;;;10.40;99.90;;;;;;5035286;28;20866;-70
2022/07/17 01:27:49;;;;;;;1999.90;999.90;;;10.40;99.90;;;;;;5035195;28;20876;-72
2022/07/17 01:30:16;;;;;;;1999.90;999.90;;;10.30;99.90;;;;;;5035330;28;20951;-77
2022/07/17 01:32:43;;;;;;;1999.90;999.90;;;10.00;99.90;;;;;;5034933;28;20501;-75
2022/07/17 01:35:12;;;;;;;1999.90;999.90;;;10.00;99.90;;;;;;5035579;28;20863;-72
2022/07/17 01:37:40;;;;;;;1999.90;999.90;;;10.10;99.90;;;;;;5033889;28;20955;-77
2022/07/17 01:40:12;;;;;;;1999.90;999.90;;;10.20;99.90;;;;;;5034610;28;20477;-79
2022/07/17 01:42:40;;;;;;;1999.90;999.90;;;10.30;99.90;;;;;;5034493;28;20548;-76
2022/07/17 01:45:07;;;;;;;1999.90;999.90;;;10.40;99.90;;;;;;5034959;28;20483;-73
2022/07/17 01:47:35;;;;;;;1999.90;999.90;;;10.30;99.90;;;;;;5034532;28;20497;-74
2022/07/17 01:50:03;;;;;;;1999.90;999.90;;;10.20;99.90;;;;;;5032749;28;20463;-72
2022/07/17 01:52:30;;;;;;;1999.90;999.90;;;10.00;99.90;;;;;;5033360;28;20855;-74
2022/07/17 01:54:57;;;;;;;1999.90;999.90;;;9.80;99.90;;;;;;5033377;28;20459;-73
2022/07/17 01:57:25;;;;;;;1999.90;999.90;;;9.80;99.90;;;;;;5032391;28;20464;-72
2022/07/17 01:59:52;;;;;;;1999.90;999.90;;;9.70;99.90;;;;;;5031231;28;20525;-72
2022/07/17 02:02:18;;;;;;;1999.90;999.90;;;9.70;99.90;;;;;;5030849;28;20556;-72
2022/07/17 02:04:45;;;;;;;1999.90;999.90;;;9.80;99.90;;;;;;5030243;28;20514;-75
2022/07/17 02:07:12;;;;;;;1999.90;999.90;;;9.70;99.90;;;;;;5032137;28;20475;-76
2022/07/17 02:09:39;;;;;;;1999.90;999.90;;;9.60;99.90;;;;;;5032875;28;20976;-79
2022/07/17 02:12:06;;;;;;;1999.90;999.90;;;9.60;99.90;;;;;;5032049;28;20487;-75
2022/07/17 02:14:34;;;;;;;1999.90;999.90;;;9.60;99.90;;;;;;5032066;28;20495;-76
2022/07/17 02:17:01;;;;;;;1999.90;999.90;;;9.60;99.90;;;;;;5030671;28;20459;-71
2022/07/17 02:19:28;;;;;;;1999.90;999.90;;;9.60;99.90;;;;;;5032147;28;20736;-74
2022/07/17 02:21:55;;;;;;;1999.90;999.90;;;9.70;99.90;;;;;;5032185;28;20483;-74
2022/07/17 02:24:21;;;;;;;1999.90;999.90;;;9.70;99.90;;;;;;5031747;28;20483;-73
2022/07/17 02:26:48;;;;;;;1999.90;999.90;;;9.80;99.90;;;;;;5027025;28;20455;-76
2022/07/17 02:29:15;;;;;;;1999.90;999.90;;;10.30;99.90;;;;;;5031729;28;20463;-74
2022/07/17 02:31:43;;;;;;;1999.90;999.90;;;9.70;99.90;;;;;;5031317;28;20487;-74
2022/07/17 02:34:09;;;;;;;1999.90;999.90;;;9.60;99.90;;;;;;5029909;28;20513;-74
2022/07/17 02:36:36;;;;;;;1999.90;999.90;;;9.50;99.90;;;;;;5035750;28;20463;-74
2022/07/17 02:39:03;;;;;;;1999.90;999.90;;;9.50;99.90;;;;;;5038199;28;21248;-75
2022/07/17 02:41:30;;;;;;;1999.90;999.90;;;9.70;99.90;;;;;;5038708;28;21033;-73
2022/07/17 02:43:56;;;;;;;1999.90;999.90;;;9.50;99.90;;;;;;5038280;28;20540;-71
2022/07/17 02:46:23;;;;;;;1999.90;999.90;;;9.50;99.90;;;;;;5037715;28;20516;-76
2022/07/17 02:48:51;;;;;;;1999.90;999.90;;;9.50;99.90;;;;;;5038422;28;20463;-76
2022/07/17 02:51:18;;;;;;;1999.90;999.90;;;9.60;99.90;;;;;;5037928;28;20459;-77
2022/07/17 02:53:44;;;;;;;1999.90;999.90;;;9.50;99.90;;;;;;5038980;28;20955;-73
2022/07/17 02:56:11;;;;;;;1999.90;999.90;;;9.30;99.90;;;;;;5037418;28;20512;-75
2022/07/17 02:58:38;;;;;;;1999.90;999.90;;;9.30;99.90;;;;;;5038372;28;20466;-72
2022/07/17 03:01:04;;;;;;;1999.90;999.90;;;9.30;99.90;;;;;;5038537;28;20536;-73
2022/07/17 03:03:31;;;;;;;1999.90;999.90;;;9.30;99.90;;;;;;5033872;28;20525;-74
2022/07/17 03:05:59;;;;;;;1999.90;999.90;;;9.40;99.90;;;;;;5038476;28;20527;-73
2022/07/17 03:08:26;;;;;;;1999.90;999.90;;;9.50;99.90;;;;;;5037534;28;20979;-75
2022/07/17 03:10:52;;;;;;;1999.90;999.90;;;9.30;99.90;;;;;;5036827;28;20881;-70
2022/07/17 03:13:19;;;;;;;1999.90;999.90;;;9.40;99.90;;;;;;5038622;28;20475;-70
2022/07/17 03:15:45;;;;;;;1999.90;999.90;;;9.50;99.90;;;;;;5034224;28;20467;-77
2022/07/17 03:18:12;;;;;;;1999.90;999.90;;;9.40;99.90;;;;;;5035076;28;20477;-74
2022/07/17 03:20:39;;;;;;;1999.90;999.90;;;9.30;99.90;;;;;;5033726;28;21029;-71
2022/07/17 03:23:07;;;;;;;1999.90;999.90;;;9.50;99.90;;;;;;5035761;28;20486;-70
2022/07/17 03:25:34;;;;;;;1999.90;999.90;;;9.50;99.90;;;;;;5038446;28;20513;-75
2022/07/17 03:28:00;;;;;;;1999.90;999.90;;;9.60;99.90;;;;;;5039708;28;20509;-71
2022/07/17 03:30:27;;;;;;;1999.90;999.90;;;9.40;99.90;;;;;;5032996;28;20985;-73
2022/07/17 03:32:54;;;;;;;1999.90;999.90;;;9.40;99.90;;;;;;5036843;28;20536;-81
2022/07/17 03:35:20;;;;;;;1999.90;999.90;;;9.30;99.90;;;;;;5035143;28;20459;-74
2022/07/17 03:37:47;;;;;;;1999.90;999.90;;;9.40;99.90;;;;;;5039627;28;20435;-78
2022/07/17 03:40:15;;;;;;;1999.90;999.90;;;9.30;99.90;;;;;;5040874;28;20442;-75
2022/07/17 03:42:41;;;;;;;1999.90;999.90;;;9.20;99.90;;;;;;5040498;28;20485;-76
2022/07/17 03:45:09;;;;;;;1999.90;999.90;;;9.30;99.90;;;;;;5039173;28;20532;-73
2022/07/17 03:47:36;;;;;;;1999.90;999.90;;;9.10;99.90;;;;;;5036992;28;20443;-76
2022/07/17 03:50:03;;;;;;;1999.90;999.90;;;9.10;99.90;;;;;;5037744;28;20504;-74
2022/07/17 03:52:30;;;;;;;1999.90;999.90;;;9.10;99.90;;;;;;5036253;28;20493;-73
2022/07/17 03:54:56;;;;;;;1999.90;999.90;;;9.10;99.90;;;;;;5036559;28;20443;-75
2022/07/17 03:57:24;;;;;;;1999.90;999.90;;;9.20;99.90;;;;;;5036702;28;20989;-74
2022/07/17 03:59:51;;;;;;;1999.90;999.90;;;9.20;99.90;;;;;;5036051;28;20470;-76
2022/07/17 04:02:18;;;;;;;1999.90;999.90;;;9.30;99.90;;;;;;5036696;28;20501;-73
2022/07/17 04:04:44;;;;;;;1999.90;999.90;;;9.30;99.90;;;;;;5036434;28;20908;-72
2022/07/17 04:07:26;;;;;;;1999.90;999.90;;;9.30;99.90;;;;;;5035024;28;20467;-72
2022/07/17 04:09:53;;;;;;;1999.90;999.90;;;9.40;99.90;;;;;;5014711;28;20436;-73
2022/07/17 04:12:20;;;;;;;1999.90;999.90;;;9.60;99.90;;;;;;5013498;28;20515;-76
2022/07/17 04:14:49;;;;;;;1999.90;999.90;;;10.00;99.90;;;;;;5025107;28;20517;-73
2022/07/17 04:17:15;;;;;;;1999.90;999.90;;;10.00;99.90;;;;;;5033173;28;20529;-73
2022/07/17 04:19:42;;;;;;;1999.90;999.90;;;10.00;99.90;;;;;;5033613;28;20497;-75
2022/07/17 04:22:09;;;;;;;1999.90;999.90;;;9.90;99.90;;;;;;5034248;28;20529;-72
2022/07/17 04:24:35;;;;;;;1999.90;999.90;;;9.90;99.90;;;;;;5033393;28;20483;-72
2022/07/17 04:27:02;;;;;;;1999.90;999.90;;;10.00;99.90;;;;;;5034921;28;20477;-71
2022/07/17 04:29:29;;;;;;;1999.90;999.90;;;10.10;99.90;;;;;;5035212;28;20459;-74
2022/07/17 04:31:57;;;;;;;1999.90;999.90;;;10.20;99.90;;;;;;5034685;28;20475;-75
2022/07/17 04:34:24;;;;;;;1999.90;999.90;;;10.40;99.90;;;;;;5034009;28;20459;-77
2022/07/17 04:36:51;;;;;;;1999.90;999.90;;;10.70;99.90;;;;;;5033198;28;20894;-74
2022/07/17 04:39:17;;;;;;;1999.90;999.90;;;11.00;99.90;;;;;;5033322;28;21105;-74
2022/07/17 04:41:44;;;;;;;1999.90;999.90;;;11.50;99.90;;;;;;5032708;28;20517;-76
2022/07/17 04:44:10;;;;;;;1999.90;999.90;;;12.00;99.90;;;;;;5032017;28;20459;-74
2022/07/17 04:46:37;;;;;;;1999.90;999.90;;;12.60;99.90;;;;;;5024107;28;20439;-74
2022/07/17 04:49:05;;;;;;;1999.90;999.90;;;13.10;99.90;;;;;;5032014;28;20448;-74
2022/07/17 04:51:32;;;;;;;1999.90;999.90;;;13.60;99.90;;;;;;5032502;28;20463;-74
2022/07/17 04:53:58;;;;;;;1999.90;999.90;;;13.90;99.90;;;;;;5031579;28;20463;-74
2022/07/17 04:56:25;;;;;;;1999.90;999.90;;;14.20;99.90;;;;;;5031664;28;20529;-75
2022/07/17 04:58:52;;;;;;;1999.90;999.90;;;14.50;99.90;;;;;;5032283;28;20546;-72
2022/07/17 05:01:19;;;;;;;1999.90;999.90;;;14.50;99.90;;;;;;4997814;28;987834;-72
2022/07/17 05:03:46;;;;;;;1999.90;999.90;;;14.70;99.90;;;;;;5032544;28;20447;-73
2022/07/17 05:06:13;;;;;;;1999.90;999.90;;;14.80;99.90;;;;;;5032900;28;20549;-73
2022/07/17 05:08:40;;;;;;;1999.90;999.90;;;15.00;99.90;;;;;;5032990;28;20444;-73
2022/07/17 05:11:07;;;;;;;1999.90;999.90;;;15.10;99.90;;;;;;5033297;28;20447;-73
2022/07/17 05:13:33;;;;;;;1999.90;999.90;;;15.20;99.90;;;;;;5032312;28;20471;-72
2022/07/17 05:16:00;;;;;;;1999.90;999.90;;;15.40;99.90;;;;;;5031600;28;20459;-72
2022/07/17 05:18:26;;;;;;;1999.90;999.90;;;15.40;99.90;;;;;;5032763;28;20455;-75
2022/07/17 05:20:53;;;;;;;1999.90;999.90;;;15.70;99.90;;;;;;5033097;28;20494;-73
2022/07/17 05:23:21;;;;;;;1999.90;999.90;;;15.80;99.90;;;;;;5032735;28;20858;-72
2022/07/17 05:25:47;;;;;;;1999.90;999.90;;;15.60;99.90;;;;;;5031606;28;20487;-72
2022/07/17 05:28:14;;;;;;;1999.90;999.90;;;15.40;99.90;;;;;;5032665;28;20443;-72
2022/07/17 05:30:41;;;;;;;1999.90;999.90;;;15.90;99.90;;;;;;5032568;28;21017;-73
2022/07/17 05:33:07;;;;;;;1999.90;999.90;;;16.40;99.90;;;;;;5032695;28;20463;-73
2022/07/17 05:35:34;;;;;;;1999.90;999.90;;;16.50;99.90;;;;;;5031895;28;20470;-73
2022/07/17 05:38:01;;;;;;;1999.90;999.90;;;16.80;99.90;;;;;;5032475;28;20447;-72
2022/07/17 05:40:29;;;;;;;1999.90;999.90;;;16.70;99.90;;;;;;5032389;28;20851;-73
2022/07/17 05:42:55;;;;;;;1999.90;999.90;;;16.80;99.90;;;;;;5031974;28;21029;-72
2022/07/17 05:45:22;;;;;;;1999.90;999.90;;;17.10;99.90;;;;;;5031829;28;20487;-72
2022/07/17 05:47:48;;;;;;;1999.90;999.90;;;17.20;99.90;;;;;;5032064;28;20493;-75
2022/07/17 05:50:15;;;;;;;1999.90;999.90;;;17.10;99.90;;;;;;5032826;28;20872;-72
2022/07/17 05:52:42;;;;;;;1999.90;999.90;;;16.90;99.90;;;;;;5032659;28;20466;-73
2022/07/17 05:55:09;;;;;;;1999.90;999.90;;;16.90;99.90;;;;;;5031577;28;20459;-74
2022/07/17 05:57:37;;;;;;;1999.90;999.90;;;17.00;99.90;;;;;;5032148;28;20447;-77
2022/07/17 06:00:04;;;;;;;1999.90;999.90;;;17.20;99.90;;;;;;5032303;28;20447;-75
2022/07/17 06:02:31;;;;;;;1999.90;999.90;;;17.10;99.90;;;;;;5051380;22;20501;-74
2022/07/17 06:04:58;;;;;;;1999.90;999.90;;;17.30;99.90;;;;;;5047846;28;20474;-74
2022/07/17 06:07:24;;;;;;;1999.90;999.90;;;17.50;99.90;;;;;;5050690;28;20466;-74
2022/07/17 06:09:51;;;;;;;1999.90;999.90;;;17.50;99.90;;;;;;5051874;28;20447;-74
2022/07/17 06:12:17;;;;;;;1999.90;999.90;;;17.40;99.90;;;;;;5051207;28;20466;-74
2022/07/17 06:14:45;;;;;;;1999.90;999.90;;;17.20;99.90;;;;;;5051614;28;21000;-74
2022/07/17 06:17:12;;;;;;;1999.90;999.90;;;17.10;99.90;;;;;;5050723;28;20470;-74
2022/07/17 06:19:38;;;;;;;1999.90;999.90;;;17.00;99.90;;;;;;5051724;28;20511;-74
2022/07/17 06:22:05;;;;;;;1999.90;999.90;;;16.90;99.90;;;;;;5050710;28;21076;-74
2022/07/17 06:24:32;;;;;;;1999.90;999.90;;;17.00;99.90;;;;;;5051380;28;20443;-74
2022/07/17 06:26:58;;;;;;;1999.90;999.90;;;17.10;99.90;;;;;;5050217;28;20446;-74
2022/07/17 06:29:25;;;;;;;1999.90;999.90;;;17.30;99.90;;;;;;5051553;28;20507;-74
2022/07/17 06:31:53;;;;;;;1999.90;999.90;;;17.20;99.90;;;;;;5051841;28;20493;-74
2022/07/17 06:34:20;;;;;;;1999.90;999.90;;;17.40;99.90;;;;;;5051601;28;20884;-74
2022/07/17 06:36:47;;;;;;;1999.90;999.90;;;17.60;99.90;;;;;;5050433;28;20449;-74
2022/07/17 06:39:13;;;;;;;1999.90;999.90;;;17.80;99.90;;;;;;5050524;28;20468;-72
2022/07/17 06:41:40;;;;;;;1999.90;999.90;;;17.70;99.90;;;;;;5050264;28;21027;-73
2022/07/17 06:44:06;;;;;;;1999.90;999.90;;;18.10;99.90;;;;;;5051604;28;20527;-74
2022/07/17 06:46:33;;;;;;;1999.90;999.90;;;18.10;99.90;;;;;;5051122;28;20478;-74
2022/07/17 06:49:01;;;;;;;1999.90;999.90;;;18.20;99.90;;;;;;5051438;28;20450;-74
2022/07/17 06:51:27;;;;;;;1999.90;999.90;;;18.30;99.90;;;;;;5051136;28;20466;-74
2022/07/17 06:53:54;;;;;;;1999.90;999.90;;;18.60;99.90;;;;;;5051862;28;20529;-73
2022/07/17 06:56:21;;;;;;;1999.90;999.90;;;18.60;99.90;;;;;;5051511;28;20500;-73
2022/07/17 06:58:47;;;;;;;1999.90;999.90;;;18.40;99.90;;;;;;5052044;28;20446;-74
2022/07/17 07:01:14;;;;;;;1999.90;999.90;;;18.40;99.90;;;;;;5050672;28;20515;-72
2022/07/17 07:03:40;;;;;;;1999.90;999.90;;;18.40;99.90;;;;;;5051330;28;20473;-74
2022/07/17 07:06:09;;;;;;;1999.90;999.90;;;18.60;99.90;;;;;;5051162;28;20509;-74
2022/07/17 07:08:35;;;;;;;1999.90;999.90;;;18.60;99.90;;;;;;5051617;28;20512;-74
2022/07/17 07:11:03;;;;;;;1999.90;999.90;;;18.40;99.90;;;;;;5049411;28;20608;-73
2022/07/17 07:13:30;;;;;;;1999.90;999.90;;;18.30;99.90;;;;;;5051796;28;20458;-74
2022/07/17 07:15:56;;;;;;;1999.90;999.90;;;18.50;99.90;;;;;;5050694;28;20476;-74
2022/07/17 07:18:23;;;;;;;1999.90;999.90;;;18.40;99.90;;;;;;5051490;28;20893;-71
2022/07/17 07:20:50;;;;;;;1999.90;999.90;;;18.30;99.90;;;;;;5050560;28;20465;-74
2022/07/17 07:23:18;;;;;;;1999.90;999.90;;;18.50;99.90;;;;;;5054216;28;20492;-74
2022/07/17 07:25:44;;;;;;;1999.90;999.90;;;18.50;99.90;;;;;;5055680;28;20539;-73
2022/07/17 07:28:11;;;;;;;1999.90;999.90;;;18.80;99.90;;;;;;5056330;28;20442;-73
2022/07/17 07:30:37;;;;;;;1999.90;999.90;;;18.90;99.90;;;;;;5055221;28;20932;-73
2022/07/17 07:33:04;;;;;;;1999.90;999.90;;;19.10;99.90;;;;;;5055039;28;20526;-73
2022/07/17 10:42:11;;;;;;;1999.90;999.90;;;22.90;85.00;;;;;;5044969;28;20433;-74
2022/07/17 10:44:37;;;;;;;1999.90;999.90;;;22.90;87.10;;;;;;5043570;28;20580;-74
2022/07/17 10:47:04;;;;;;;1999.90;999.90;;;23.40;81.50;;;;;;5042626;28;20486;-74
2022/07/17 10:49:30;;;;;;;1999.90;999.90;;;23.20;84.40;;;;;;5047486;28;20885;-74
2022/07/17 10:51:57;;;;;;;1999.90;999.90;;;23.10;85.20;;;;;;5044266;28;20462;-72
2022/07/17 10:54:34;;;;;;;1999.90;999.90;;;23.10;86.20;;;;;;5045887;28;20454;-74
2022/07/17 10:57:02;;;;;;;1999.90;999.90;;;23.10;87.80;;;;;;5048106;28;20545;-73
2022/07/17 10:59:30;;;;;;;1999.90;999.90;;;23.00;88.70;;;;;;5052242;28;20453;-72
2022/07/17 11:01:57;;;;;;;1999.90;999.90;;;22.90;85.70;;;;;;5051659;28;20515;-73
2022/07/17 11:04:24;;;;;;;1999.90;999.90;;;22.60;85.50;;;;;;5052215;28;20466;-74
2022/07/17 11:06:50;;;;;;;1999.90;999.90;;;22.90;86.30;;;;;;5048684;28;20513;-73
2022/07/17 11:09:17;;;;;;;1999.90;999.90;;;22.90;85.90;;;;;;5053889;28;20458;-74
2022/07/17 11:11:46;;;;;;;1999.90;999.90;;;23.10;84.60;;;;;;5051170;28;20470;-73
2022/07/17 11:14:14;;;;;;;1999.90;999.90;;;23.30;87.50;;;;;;5054268;28;20958;-72
2022/07/17 11:16:47;;;;;;;1999.90;999.90;;;22.90;85.90;;;;;;5053596;28;20870;-73
2022/07/17 11:19:21;;;;;;;1999.90;999.90;;;22.90;87.00;;;;;;5053173;28;20548;-73
2022/07/17 11:21:48;;;;;;;1999.90;999.90;;;23.00;85.70;;;;;;5050960;28;20958;-73
2022/07/17 11:24:16;;;;;;;1999.90;999.90;;;23.00;83.10;;;;;;5052717;28;20449;-73
2022/07/17 11:26:44;;;;;;;1999.90;999.90;;;23.10;82.00;;;;;;5052827;28;20647;-72
2022/07/17 11:29:10;;;;;;;1999.90;999.90;;;23.40;81.50;;;;;;5053256;28;20445;-73
2022/07/17 11:31:37;;;;;;;1999.90;999.90;;;23.40;79.80;;;;;;5052395;28;20461;-73
2022/07/17 11:34:08;;;;;;;1999.90;999.90;;;23.40;81.00;;;;;;5054544;28;20988;-73
2022/07/17 11:36:36;;;;;;;1999.90;999.90;;;23.60;76.30;;;;;;5048788;28;20454;-73
2022/07/17 11:39:05;;;;;;;1999.90;999.90;;;23.40;78.80;;;;;;5052506;28;20519;-73
2022/07/17 11:41:36;;;;;;;1999.90;999.90;;;23.40;80.00;;;;;;5048082;28;21026;-71
2022/07/17 11:44:05;;;;;;;1999.90;999.90;;;23.40;79.50;;;;;;5052086;28;21069;-73
2022/07/17 11:46:33;;;;;;;1999.90;999.90;;;23.50;82.10;;;;;;5049063;28;20488;-72
2022/07/17 11:49:00;;;;;;;1999.90;999.90;;;23.40;82.00;;;;;;5051969;28;20469;-72
2022/07/17 11:51:39;;;;;;;1999.90;999.90;;;23.60;81.10;;;;;;5051466;28;20465;-73
2022/07/17 11:54:07;;;;;;;1999.90;999.90;;;23.40;81.10;;;;;;5051831;28;20481;-73
2022/07/17 11:56:34;;;;;;;1999.90;999.90;;;23.80;82.30;;;;;;5049881;28;20458;-72
2022/07/17 11:59:02;;;;;;;1999.90;999.90;;;23.90;81.40;;;;;;5051058;28;20458;-72
2022/07/17 12:01:30;;;;;;;1999.90;999.90;;;23.90;79.80;;;;;;5051310;28;20576;-73
2022/07/17 12:03:58;;;;;;;1999.90;999.90;;;24.40;80.70;;;;;;5063764;23;20530;-69
2022/07/17 12:06:26;;;;;;;1999.90;999.90;;;24.50;80.70;;;;;;5048519;28;20493;-69
2022/07/17 12:08:54;;;;;;;1999.90;999.90;;;24.60;78.00;;;;;;5046840;28;20558;-67
2022/07/17 12:11:21;;;;;;;1999.90;999.90;;;24.70;77.00;;;;;;5050933;28;20463;-69
2022/07/17 12:13:50;;;;;;;1999.90;999.90;;;24.60;76.60;;;;;;5048624;28;20487;-69
2022/07/17 12:16:25;;;;;;;1999.90;999.90;;;24.40;76.10;;;;;;5046315;28;20500;-69
2022/07/17 12:19:08;;;;;;;1999.90;999.90;;;24.40;78.20;;;;;;5046045;28;20466;-69
2022/07/17 12:21:47;;;;;;;1999.90;999.90;;;24.90;77.20;;;;;;5045860;28;20493;-69
2022/07/17 12:24:22;;;;;;;1999.90;999.90;;;24.60;74.70;;;;;;5045880;28;20548;-71
2022/07/17 12:26:49;;;;;;;1999.90;999.90;;;24.20;74.60;;;;;;5044243;28;20478;-69
2022/07/17 12:29:16;;;;;;;1999.90;999.90;;;24.10;75.10;;;;;;5045738;28;21059;-70
2022/07/17 12:31:43;;;;;;;1999.90;999.90;;;24.10;76.30;;;;;;5046937;28;20880;-67
2022/07/17 12:34:10;;;;;;;1999.90;999.90;;;24.40;75.00;;;;;;5048898;28;20553;-68
2022/07/17 12:36:36;;;;;;;1999.90;999.90;;;24.50;73.90;;;;;;5043984;28;20455;-71
2022/07/17 12:39:03;;;;;;;1999.90;999.90;;;24.60;75.30;;;;;;5050663;28;20525;-69
2022/07/17 12:41:31;;;;;;;1999.90;999.90;;;24.70;76.00;;;;;;5048482;28;20454;-69
2022/07/17 12:43:58;;;;;;;1999.90;999.90;;;24.80;75.30;;;;;;5042681;28;20483;-69
2022/07/17 12:46:25;;;;;;;1999.90;999.90;;;24.90;73.50;;;;;;5044565;28;20535;-68
2022/07/17 12:48:51;;;;;;;1999.90;999.90;;;24.90;74.20;;;;;;5051274;28;20493;-69
2022/07/17 12:51:18;;;;;;;1999.90;999.90;;;24.90;73.90;;;;;;5050782;28;20450;-70
2022/07/17 12:53:45;;;;;;;1999.90;999.90;;;24.70;73.00;;;;;;5053342;28;20523;-68
2022/07/17 12:56:12;;;;;;;1999.90;999.90;;;24.80;73.00;;;;;;5051670;28;20882;-67
2022/07/17 12:58:40;;;;;;;1999.90;999.90;;;25.00;73.00;;;;;;5052482;28;20492;-69
2022/07/17 13:01:07;;;;;;;1999.90;999.90;;;25.00;75.20;;;;;;5052981;28;20459;-69
2022/07/17 13:03:34;;;;;;;1999.90;999.90;;;24.90;72.50;;;;;;5051885;28;21379;-70
2022/07/17 13:06:01;;;;;;;1999.90;999.90;;;25.00;73.30;;;;;;5050133;28;20466;-68
2022/07/17 13:08:28;;;;;;;1999.90;999.90;;;24.90;73.70;;;;;;5052279;28;20537;-67
2022/07/17 13:10:55;;;;;;;1999.90;999.90;;;24.90;71.40;;;;;;5052914;28;20450;-69
2022/07/17 13:13:21;;;;;;;1999.90;999.90;;;24.90;69.80;;;;;;5052670;28;20869;-70
2022/07/17 13:15:50;;;;;;;1999.90;999.90;;;24.60;72.00;;;;;;5052840;28;20496;-69
2022/07/17 13:18:16;;;;;;;1999.90;999.90;;;24.60;71.90;;;;;;5051034;28;20454;-70
2022/07/17 13:20:43;;;;;;;1999.90;999.90;;;24.90;70.00;;;;;;5052520;28;20881;-69
2022/07/17 13:23:10;;;;;;;1999.90;999.90;;;24.80;69.70;;;;;;5052825;28;20458;-69
2022/07/17 13:25:37;;;;;;;1999.90;999.90;;;24.90;68.80;;;;;;5050794;28;20761;-70
2022/07/17 13:28:04;;;;;;;1999.90;999.90;;;24.80;65.30;;;;;;5051343;28;20517;-69
2022/07/17 13:30:31;;;;;;;1999.90;999.90;;;24.80;67.30;;;;;;5051490;28;20822;-69
2022/07/17 13:32:59;;;;;;;1999.90;999.90;;;24.90;66.70;;;;;;5032621;28;20537;-69
2022/07/17 13:35:26;;;;;;;1999.90;999.90;;;24.90;67.40;;;;;;5049948;28;20464;-69
2022/07/17 13:37:53;;;;;;;1999.90;999.90;;;24.70;68.60;;;;;;5043446;28;20494;-69
2022/07/17 13:40:20;;;;;;;1999.90;999.90;;;24.70;68.40;;;;;;5047185;28;20907;-69
2022/07/17 13:42:46;;;;;;;1999.90;999.90;;;24.90;68.70;;;;;;5050329;28;20489;-69
2022/07/17 13:45:13;;;;;;;1999.90;999.90;;;25.00;70.30;;;;;;5048050;28;20519;-70
2022/07/17 13:47:40;;;;;;;1999.90;999.90;;;25.10;67.70;;;;;;5049674;28;20482;-69
2022/07/17 13:50:08;;;;;;;1999.90;999.90;;;25.10;66.00;;;;;;5048005;28;20458;-67
2022/07/17 13:52:37;;;;;;;1999.90;999.90;;;25.10;68.90;;;;;;5049069;28;20891;-67
2022/07/17 13:55:04;;;;;;;1999.90;999.90;;;25.20;65.40;;;;;;5049629;28;20902;-66
2022/07/17 13:57:31;;;;;;;1999.90;999.90;;;25.40;65.40;;;;;;5047418;28;20524;-67
2022/07/17 13:59:57;;;;;;;1999.90;999.90;;;25.60;62.60;;;;;;5049861;28;20458;-68
2022/07/17 14:02:24;;;;;;;1999.90;999.90;;;25.60;64.20;;;;;;5051301;28;20942;-68
2022/07/17 14:04:51;;;;;;;1999.90;999.90;;;25.70;61.50;;;;;;5050743;28;20426;-69
2022/07/17 14:07:19;;;;;;;1999.90;999.90;;;25.50;61.30;;;;;;5049682;28;20546;-69
2022/07/17 14:09:45;;;;;;;1999.90;999.90;;;25.20;61.70;;;;;;5051054;28;20530;-69
2022/07/17 14:12:12;;;;;;;1999.90;999.90;;;25.00;60.80;;;;;;5048338;28;20536;-68
2022/07/17 14:14:39;;;;;;;1999.90;999.90;;;25.10;65.20;;;;;;5049838;28;20466;-70
2022/07/17 14:17:05;;;;;;;1999.90;999.90;;;25.20;63.80;;;;;;5048169;28;20459;-70
2022/07/17 14:19:33;;;;;;;1999.90;999.90;;;25.10;62.60;;;;;;5048090;28;22050;-70
2022/07/17 14:22:00;;;;;;;1999.90;999.90;;;25.10;62.70;;;;;;5050102;28;20465;-68
2022/07/17 14:24:28;;;;;;;1999.90;999.90;;;25.20;65.40;;;;;;5050269;28;20485;-69
2022/07/17 14:26:54;;;;;;;1999.90;999.90;;;25.50;66.20;;;;;;5050444;28;20482;-66
2022/07/17 14:29:21;;;;;;;1999.90;999.90;;;25.80;66.30;;;;;;5046299;28;20949;-69
2022/07/17 14:31:48;;;;;;;1999.90;999.90;;;25.60;67.10;;;;;;5048549;28;20466;-69
2022/07/17 14:34:16;;;;;;;1999.90;999.90;;;25.70;66.30;;;;;;5048264;28;20481;-68
2022/07/17 14:36:43;;;;;;;1999.90;999.90;;;25.70;66.30;;;;;;5047151;28;20466;-68
2022/07/17 14:39:10;;;;;;;1999.90;999.90;;;25.70;66.10;;;;;;5042120;28;20458;-68
2022/07/17 14:41:38;;;;;;;1999.90;999.90;;;25.70;58.90;;;;;;5048604;28;20970;-69
2022/07/17 14:44:05;;;;;;;1999.90;999.90;;;25.50;59.90;;;;;;5049808;28;20525;-68
2022/07/17 14:46:31;;;;;;;1999.90;999.90;;;25.50;59.30;;;;;;5046955;28;20463;-68
2022/07/17 14:48:58;;;;;;;1999.90;999.90;;;25.60;62.00;;;;;;5049798;28;20458;-68
2022/07/17 14:51:25;;;;;;;1999.90;999.90;;;25.50;62.90;;;;;;5049096;28;20458;-68
2022/07/17 14:53:51;;;;;;;1999.90;999.90;;;25.50;63.90;;;;;;5049567;28;20551;-69
2022/07/17 14:56:18;;;;;;;1999.90;999.90;;;25.50;61.00;;;;;;5046284;28;20883;-69
2022/07/17 14:58:46;;;;;;;1999.90;999.90;;;25.60;61.20;;;;;;5049479;28;20520;-68
2022/07/17 15:01:13;;;;;;;1999.90;999.90;;;25.80;62.80;;;;;;5049010;28;20462;-69
2022/07/17 15:03:39;;;;;;;1999.90;999.90;;;25.80;62.20;;;;;;5048135;28;20493;-69
2022/07/17 15:06:06;;;;;;;1999.90;999.90;;;25.60;64.30;;;;;;5048330;28;20519;-69
2022/07/17 15:08:33;;;;;;;1999.90;999.90;;;25.60;64.60;;;;;;5046913;28;20491;-69